SBDN/PPB METAR and TAF weather

Enter ICAO airport designator
Station Type Date Time Source
SBDN METAR 2022/11/26 08:00 UTC NOAA

SBDN 260800Z 09008KT CAVOK 17/14 Q1013


Station Type Date Time Source
SBDN Decoded METAR 2022/11/26 08:00 UTC NOAA

Presidente Prudente, Brazil (SBDN) 22-07S 051-23W
Nov 26, 2022 - 03:00 AM EST / 2022.11.26 0800 UTC
Wind: from the E (090 degrees) at 9 MPH (8 KT):0
Visibility: greater than 7 mile(s):0
Temperature: 62 F (17 C)
Dew Point: 57 F (14 C)
Relative Humidity: 82%
Pressure (altimeter): 29.91 in. Hg (1013 hPa)
ob: SBDN 260800Z 09008KT CAVOK 17/14 Q1013
cycle: 8

Station Type Date Time Source
SBDN TAF 2022/11/26 06:33 UTC NOAA

TAF SBDN 260200Z 2606/2618 12012KT CAVOK TN18/2609Z TX31/2617Z
BECMG 2615/2617 17008KT
RMK PGF

Example: see airport list